首页
METAR-TAF:

METAR-TAF

机场 :

拉巴斯, 玻利维亚

奧爾托國際機場

纬度: 16-31S, 经度: 068-11W, 海拔: 4058米

当前天气观测

该预报发布于1小时和7分钟前的14:00 UTC
风速4节,风向西
温度 9°C
湿度 71%
气压 1038 hPa
能见度10公里或以上
少量云层高于600英尺
散云层高于1500英尺
多云层高于20000英尺

METAR: SLLP 201400Z 28004KT 9999 FEW006 SCT015 BKN200 09/04 Q1038

时间: 11:07 (15:07 UTC)

预报

该预报发布于5小时和7分钟前的10:00 UTC
预报有效从20日的 12点(UTC)到 21日的 12点(UTC)
风速7节,风向东南
能见度10公里或以上
散云层高于1500英尺
散云层高于7000英尺
短暂存在
从 20日的 18点(UTC)到 20日的 22点(UTC)
风速14节,风向东北
能見度: 8000
散云层高于1700英尺
少量云层高于2000英尺, 积雨云.
成为
在之间 20和23点(UTC)
风速5节,风向东转东北
短暂存在
从 21日的 06点(UTC)到 21日的 10点(UTC)
能見度: 3000
少量云层高于200英尺
散云层高于1200英尺
附近有雾

TAF: SLLP 201000Z 2012/2112 14007KT 9999 SCT015 SCT070 TX16/2020Z TN04 /2110Z TEMPO 2018/2022 04014KT 8000 VCTSSH SCT017 FEW020CB BECMG 2023 /2101 07005KT TEMPO 2106/2110 3000E VCFG FEW002 SCT012

超过4000个机场的气象观测和天气预报(METAR&TAF报告)。

可查询的气象台以黄色和红色小点在地图上表示。

将鼠标移到小点上方,可查看气象台名称。

然后点击查看天气观测和预报。

如需切换地图:点击带黑十字的绿色按钮放大地图;点击带横线的绿色按钮缩小地图;或者点击绿色箭头查看邻近地区的地图。


METAR-TAF: